sensor_id;sensor_type;location;lat;lon;timestamp;temperature;humidity
28460;DHT22;32528;45.712;9.192;2023-04-03T00:00:40;9.20;92.40
28460;DHT22;32528;45.712;9.192;2023-04-03T00:02:41;9.30;92.40
28460;DHT22;32528;45.712;9.192;2023-04-03T00:04:42;9.30;92.50
28460;DHT22;32528;45.712;9.192;2023-04-03T00:06:42;9.30;92.40
28460;DHT22;32528;45.712;9.192;2023-04-03T00:08:43;9.40;92.40
28460;DHT22;32528;45.712;9.192;2023-04-03T00:10:44;9.40;92.40
28460;DHT22;32528;45.712;9.192;2023-04-03T00:12:45;9.30;92.70
28460;DHT22;32528;45.712;9.192;2023-04-03T00:14:45;9.40;92.30
28460;DHT22;32528;45.712;9.192;2023-04-03T00:16:46;9.30;92.30
28460;DHT22;32528;45.712;9.192;2023-04-03T00:18:47;9.30;92.20
28460;DHT22;32528;45.712;9.192;2023-04-03T00:20:48;9.30;92.20
28460;DHT22;32528;45.712;9.192;2023-04-03T00:22:49;9.30;92.30
28460;DHT22;32528;45.712;9.192;2023-04-03T00:24:50;9.20;92.20
28460;DHT22;32528;45.712;9.192;2023-04-03T00:26:50;9.10;92.30
28460;DHT22;32528;45.712;9.192;2023-04-03T00:28:51;9.10;92.40
28460;DHT22;32528;45.712;9.192;2023-04-03T00:30:52;9.00;92.40
28460;DHT22;32528;45.712;9.192;2023-04-03T00:32:53;9.00;92.40
28460;DHT22;32528;45.712;9.192;2023-04-03T00:34:54;8.90;92.50
28460;DHT22;32528;45.712;9.192;2023-04-03T00:36:54;8.90;92.60
28460;DHT22;32528;45.712;9.192;2023-04-03T00:38:55;9.00;92.60
28460;DHT22;32528;45.712;9.192;2023-04-03T00:40:56;8.90;92.60
28460;DHT22;32528;45.712;9.192;2023-04-03T00:42:58;8.90;92.60
28460;DHT22;32528;45.712;9.192;2023-04-03T00:47:02;8.90;92.80
28460;DHT22;32528;45.712;9.192;2023-04-03T00:49:04;8.90;92.80
28460;DHT22;32528;45.712;9.192;2023-04-03T00:51:07;8.90;92.80
28460;DHT22;32528;45.712;9.192;2023-04-03T00:53:14;8.90;92.70
28460;DHT22;32528;45.712;9.192;2023-04-03T00:55:17;9.00;92.70
28460;DHT22;32528;45.712;9.192;2023-04-03T00:57:18;9.00;92.40
28460;DHT22;32528;45.712;9.192;2023-04-03T00:59:25;9.10;92.40
28460;DHT22;32528;45.712;9.192;2023-04-03T01:01:28;9.00;92.30
28460;DHT22;32528;45.712;9.192;2023-04-03T01:03:29;9.10;92.20
28460;DHT22;32528;45.712;9.192;2023-04-03T01:05:33;9.10;92.20
28460;DHT22;32528;45.712;9.192;2023-04-03T01:07:34;9.00;92.20
28460;DHT22;32528;45.712;9.192;2023-04-03T01:09:37;9.00;92.30
28460;DHT22;32528;45.712;9.192;2023-04-03T01:11:39;9.00;92.40
28460;DHT22;32528;45.712;9.192;2023-04-03T01:13:41;9.00;92.40
28460;DHT22;32528;45.712;9.192;2023-04-03T01:15:42;8.90;92.50
28460;DHT22;32528;45.712;9.192;2023-04-03T01:17:48;8.90;92.70
28460;DHT22;32528;45.712;9.192;2023-04-03T01:19:57;8.90;92.70
28460;DHT22;32528;45.712;9.192;2023-04-03T01:22:14;8.90;92.70
28460;DHT22;32528;45.712;9.192;2023-04-03T01:24:37;8.80;92.80
28460;DHT22;32528;45.712;9.192;2023-04-03T01:26:44;8.80;92.80
28460;DHT22;32528;45.712;9.192;2023-04-03T01:28:45;8.80;92.70
28460;DHT22;32528;45.712;9.192;2023-04-03T01:31:13;8.70;92.70
28460;DHT22;32528;45.712;9.192;2023-04-03T01:33:17;8.70;92.90
28460;DHT22;32528;45.712;9.192;2023-04-03T01:35:18;8.70;92.90
28460;DHT22;32528;45.712;9.192;2023-04-03T01:37:19;8.60;92.90
28460;DHT22;32528;45.712;9.192;2023-04-03T01:39:20;8.50;93.00
28460;DHT22;32528;45.712;9.192;2023-04-03T01:41:22;8.50;93.20
28460;DHT22;32528;45.712;9.192;2023-04-03T01:43:23;8.40;93.30
28460;DHT22;32528;45.712;9.192;2023-04-03T01:45:24;8.40;93.40
28460;DHT22;32528;45.712;9.192;2023-04-03T01:47:25;8.40;93.60
28460;DHT22;32528;45.712;9.192;2023-04-03T01:49:26;8.40;93.60
28460;DHT22;32528;45.712;9.192;2023-04-03T01:51:27;8.40;93.50
28460;DHT22;32528;45.712;9.192;2023-04-03T01:53:27;8.40;93.70
28460;DHT22;32528;45.712;9.192;2023-04-03T01:55:28;8.30;93.70
28460;DHT22;32528;45.712;9.192;2023-04-03T01:57:29;8.30;93.80
28460;DHT22;32528;45.712;9.192;2023-04-03T01:59:30;8.30;93.70
28460;DHT22;32528;45.712;9.192;2023-04-03T02:01:31;8.30;93.60
28460;DHT22;32528;45.712;9.192;2023-04-03T02:03:32;8.30;93.70
28460;DHT22;32528;45.712;9.192;2023-04-03T02:05:33;8.30;93.70
28460;DHT22;32528;45.712;9.192;2023-04-03T02:07:34;8.20;93.60
28460;DHT22;32528;45.712;9.192;2023-04-03T02:09:34;8.30;93.90
28460;DHT22;32528;45.712;9.192;2023-04-03T02:11:35;8.20;93.80
28460;DHT22;32528;45.712;9.192;2023-04-03T02:13:36;8.10;93.90
28460;DHT22;32528;45.712;9.192;2023-04-03T02:15:40;8.10;94.00
28460;DHT22;32528;45.712;9.192;2023-04-03T02:17:40;8.10;93.90
28460;DHT22;32528;45.712;9.192;2023-04-03T02:19:41;8.00;94.00
28460;DHT22;32528;45.712;9.192;2023-04-03T02:21:42;8.00;94.00
28460;DHT22;32528;45.712;9.192;2023-04-03T02:23:43;8.00;94.00
28460;DHT22;32528;45.712;9.192;2023-04-03T02:25:43;8.00;94.00
28460;DHT22;32528;45.712;9.192;2023-04-03T02:27:44;8.00;94.10
28460;DHT22;32528;45.712;9.192;2023-04-03T02:29:45;7.90;94.20
28460;DHT22;32528;45.712;9.192;2023-04-03T02:31:47;7.90;94.40
28460;DHT22;32528;45.712;9.192;2023-04-03T02:33:49;7.80;94.40
28460;DHT22;32528;45.712;9.192;2023-04-03T02:35:54;7.80;94.60
28460;DHT22;32528;45.712;9.192;2023-04-03T02:37:57;7.80;94.60
28460;DHT22;32528;45.712;9.192;2023-04-03T02:39:58;7.80;94.70
28460;DHT22;32528;45.712;9.192;2023-04-03T02:41:58;7.80;94.50
28460;DHT22;32528;45.712;9.192;2023-04-03T02:44:02;7.80;94.20
28460;DHT22;32528;45.712;9.192;2023-04-03T02:46:03;7.70;94.30
28460;DHT22;32528;45.712;9.192;2023-04-03T02:48:04;7.70;94.60
28460;DHT22;32528;45.712;9.192;2023-04-03T02:50:05;7.70;94.50
28460;DHT22;32528;45.712;9.192;2023-04-03T02:52:06;7.70;94.70
28460;DHT22;32528;45.712;9.192;2023-04-03T02:54:08;7.70;94.80
28460;DHT22;32528;45.712;9.192;2023-04-03T02:56:11;7.70;94.70
28460;DHT22;32528;45.712;9.192;2023-04-03T02:58:12;7.70;94.80
28460;DHT22;32528;45.712;9.192;2023-04-03T03:00:13;7.70;94.90
28460;DHT22;32528;45.712;9.192;2023-04-03T03:02:14;7.70;94.80
28460;DHT22;32528;45.712;9.192;2023-04-03T03:04:15;7.70;94.60
28460;DHT22;32528;45.712;9.192;2023-04-03T03:06:17;7.60;94.60
28460;DHT22;32528;45.712;9.192;2023-04-03T03:08:18;7.50;94.70
28460;DHT22;32528;45.712;9.192;2023-04-03T03:10:20;7.50;94.70
28460;DHT22;32528;45.712;9.192;2023-04-03T03:12:21;7.40;95.10
28460;DHT22;32528;45.712;9.192;2023-04-03T03:14:24;7.40;95.40
28460;DHT22;32528;45.712;9.192;2023-04-03T03:16:25;7.30;95.20
28460;DHT22;32528;45.712;9.192;2023-04-03T03:18:25;7.30;95.50
28460;DHT22;32528;45.712;9.192;2023-04-03T03:20:27;7.30;95.50
28460;DHT22;32528;45.712;9.192;2023-04-03T03:22:28;7.30;95.30
28460;DHT22;32528;45.712;9.192;2023-04-03T03:24:29;7.30;95.20
28460;DHT22;32528;45.712;9.192;2023-04-03T03:26:31;7.30;95.30
28460;DHT22;32528;45.712;9.192;2023-04-03T03:28:32;7.30;95.20
28460;DHT22;32528;45.712;9.192;2023-04-03T03:30:34;7.20;95.40
28460;DHT22;32528;45.712;9.192;2023-04-03T03:32:35;7.20;95.40
28460;DHT22;32528;45.712;9.192;2023-04-03T03:34:36;7.20;95.70
28460;DHT22;32528;45.712;9.192;2023-04-03T03:36:37;7.20;95.60
28460;DHT22;32528;45.712;9.192;2023-04-03T03:38:38;7.10;95.70
28460;DHT22;32528;45.712;9.192;2023-04-03T03:40:39;7.10;95.90
28460;DHT22;32528;45.712;9.192;2023-04-03T03:42:41;7.10;95.80
28460;DHT22;32528;45.712;9.192;2023-04-03T03:44:42;7.10;95.60
28460;DHT22;32528;45.712;9.192;2023-04-03T03:46:42;7.10;95.60
28460;DHT22;32528;45.712;9.192;2023-04-03T03:48:43;7.10;95.70
28460;DHT22;32528;45.712;9.192;2023-04-03T03:50:45;7.10;95.70
28460;DHT22;32528;45.712;9.192;2023-04-03T03:52:46;7.10;95.70
28460;DHT22;32528;45.712;9.192;2023-04-03T03:54:47;7.00;95.70
28460;DHT22;32528;45.712;9.192;2023-04-03T03:56:50;7.00;96.00
28460;DHT22;32528;45.712;9.192;2023-04-03T03:58:52;6.90;96.00
28460;DHT22;32528;45.712;9.192;2023-04-03T04:00:52;7.00;95.90
28460;DHT22;32528;45.712;9.192;2023-04-03T04:02:53;6.90;96.00
28460;DHT22;32528;45.712;9.192;2023-04-03T04:04:57;6.80;96.50
28460;DHT22;32528;45.712;9.192;2023-04-03T04:06:58;6.80;96.50
28460;DHT22;32528;45.712;9.192;2023-04-03T04:09:01;6.80;96.40
28460;DHT22;32528;45.712;9.192;2023-04-03T04:11:02;6.80;96.70
28460;DHT22;32528;45.712;9.192;2023-04-03T04:13:03;6.80;96.60
28460;DHT22;32528;45.712;9.192;2023-04-03T04:15:05;6.80;97.00
28460;DHT22;32528;45.712;9.192;2023-04-03T04:17:07;6.70;96.70
28460;DHT22;32528;45.712;9.192;2023-04-03T04:19:10;6.70;96.70
28460;DHT22;32528;45.712;9.192;2023-04-03T04:21:12;6.70;96.70
28460;DHT22;32528;45.712;9.192;2023-04-03T04:23:13;6.80;96.50
28460;DHT22;32528;45.712;9.192;2023-04-03T04:25:15;6.70;96.40
28460;DHT22;32528;45.712;9.192;2023-04-03T04:27:15;6.70;96.60
28460;DHT22;32528;45.712;9.192;2023-04-03T04:29:16;6.70;96.70
28460;DHT22;32528;45.712;9.192;2023-04-03T04:31:20;6.60;96.70
28460;DHT22;32528;45.712;9.192;2023-04-03T04:33:23;6.60;97.30
28460;DHT22;32528;45.712;9.192;2023-04-03T04:35:24;6.50;97.50
28460;DHT22;32528;45.712;9.192;2023-04-03T04:37:26;6.50;97.50
28460;DHT22;32528;45.712;9.192;2023-04-03T04:39:27;6.60;97.70
28460;DHT22;32528;45.712;9.192;2023-04-03T04:41:30;6.60;97.60
28460;DHT22;32528;45.712;9.192;2023-04-03T04:43:32;6.60;97.70
28460;DHT22;32528;45.712;9.192;2023-04-03T04:45:32;6.60;97.40
28460;DHT22;32528;45.712;9.192;2023-04-03T04:47:33;6.60;97.20
28460;DHT22;32528;45.712;9.192;2023-04-03T04:49:35;6.60;97.20
28460;DHT22;32528;45.712;9.192;2023-04-03T04:51:37;6.60;97.20
28460;DHT22;32528;45.712;9.192;2023-04-03T04:53:38;6.60;97.50
28460;DHT22;32528;45.712;9.192;2023-04-03T04:55:39;6.50;97.80
28460;DHT22;32528;45.712;9.192;2023-04-03T04:57:40;6.50;97.50
28460;DHT22;32528;45.712;9.192;2023-04-03T04:59:41;6.50;97.60
28460;DHT22;32528;45.712;9.192;2023-04-03T05:01:42;6.50;97.70
28460;DHT22;32528;45.712;9.192;2023-04-03T05:03:49;6.50;97.70
28460;DHT22;32528;45.712;9.192;2023-04-03T05:05:52;6.50;97.80
28460;DHT22;32528;45.712;9.192;2023-04-03T05:07:53;6.50;97.90
28460;DHT22;32528;45.712;9.192;2023-04-03T05:09:53;6.50;97.70
28460;DHT22;32528;45.712;9.192;2023-04-03T05:11:55;6.50;97.60
28460;DHT22;32528;45.712;9.192;2023-04-03T05:13:59;6.50;97.60
28460;DHT22;32528;45.712;9.192;2023-04-03T05:16:02;6.50;97.50
28460;DHT22;32528;45.712;9.192;2023-04-03T05:18:03;6.60;97.30
28460;DHT22;32528;45.712;9.192;2023-04-03T05:20:05;6.60;97.50
28460;DHT22;32528;45.712;9.192;2023-04-03T05:22:06;6.60;97.40
28460;DHT22;32528;45.712;9.192;2023-04-03T05:24:07;6.50;97.20
28460;DHT22;32528;45.712;9.192;2023-04-03T05:26:12;6.60;97.10
28460;DHT22;32528;45.712;9.192;2023-04-03T05:28:15;6.60;97.40
28460;DHT22;32528;45.712;9.192;2023-04-03T05:30:16;6.60;97.10
28460;DHT22;32528;45.712;9.192;2023-04-03T05:32:17;6.70;96.90
28460;DHT22;32528;45.712;9.192;2023-04-03T05:34:21;6.70;97.10
28460;DHT22;32528;45.712;9.192;2023-04-03T05:36:24;6.70;97.30
28460;DHT22;32528;45.712;9.192;2023-04-03T05:38:31;6.80;96.90
28460;DHT22;32528;45.712;9.192;2023-04-03T05:40:33;6.90;96.60
28460;DHT22;32528;45.712;9.192;2023-04-03T05:42:34;7.00;96.50
28460;DHT22;32528;45.712;9.192;2023-04-03T05:44:35;7.10;96.40
28460;DHT22;32528;45.712;9.192;2023-04-03T05:46:36;7.10;96.40
28460;DHT22;32528;45.712;9.192;2023-04-03T05:48:40;7.10;96.60
28460;DHT22;32528;45.712;9.192;2023-04-03T05:50:41;7.10;96.30
28460;DHT22;32528;45.712;9.192;2023-04-03T05:52:47;7.10;96.30
28460;DHT22;32528;45.712;9.192;2023-04-03T05:54:49;7.10;96.20
28460;DHT22;32528;45.712;9.192;2023-04-03T05:56:56;7.20;96.30
28460;DHT22;32528;45.712;9.192;2023-04-03T05:58:58;7.30;96.60
28460;DHT22;32528;45.712;9.192;2023-04-03T06:01:00;7.30;96.40
28460;DHT22;32528;45.712;9.192;2023-04-03T06:03:01;7.40;96.20
28460;DHT22;32528;45.712;9.192;2023-04-03T06:05:03;7.40;96.10
28460;DHT22;32528;45.712;9.192;2023-04-03T06:07:03;7.40;96.10
28460;DHT22;32528;45.712;9.192;2023-04-03T06:09:04;7.50;96.30
28460;DHT22;32528;45.712;9.192;2023-04-03T06:11:05;7.60;96.30
28460;DHT22;32528;45.712;9.192;2023-04-03T06:13:07;7.60;96.10
28460;DHT22;32528;45.712;9.192;2023-04-03T06:15:08;7.70;95.90
28460;DHT22;32528;45.712;9.192;2023-04-03T06:17:10;7.90;95.80
28460;DHT22;32528;45.712;9.192;2023-04-03T06:19:12;8.10;95.70
28460;DHT22;32528;45.712;9.192;2023-04-03T06:21:18;8.20;95.50
28460;DHT22;32528;45.712;9.192;2023-04-03T06:23:19;8.40;95.70
28460;DHT22;32528;45.712;9.192;2023-04-03T06:25:20;8.50;95.60
28460;DHT22;32528;45.712;9.192;2023-04-03T06:27:21;8.70;95.40
28460;DHT22;32528;45.712;9.192;2023-04-03T06:29:23;8.90;95.10
28460;DHT22;32528;45.712;9.192;2023-04-03T06:31:23;9.00;94.90
28460;DHT22;32528;45.712;9.192;2023-04-03T06:33:25;9.20;94.70
28460;DHT22;32528;45.712;9.192;2023-04-03T06:35:26;9.40;94.50
28460;DHT22;32528;45.712;9.192;2023-04-03T06:37:28;9.50;94.40
28460;DHT22;32528;45.712;9.192;2023-04-03T06:39:31;9.60;94.50
28460;DHT22;32528;45.712;9.192;2023-04-03T06:41:31;9.80;94.50
28460;DHT22;32528;45.712;9.192;2023-04-03T06:43:32;9.90;94.50
28460;DHT22;32528;45.712;9.192;2023-04-03T06:45:34;10.00;94.20
28460;DHT22;32528;45.712;9.192;2023-04-03T06:47:34;10.00;94.40
28460;DHT22;32528;45.712;9.192;2023-04-03T06:49:35;10.20;94.50
28460;DHT22;32528;45.712;9.192;2023-04-03T06:51:37;10.30;93.90
28460;DHT22;32528;45.712;9.192;2023-04-03T06:53:38;10.50;93.60
28460;DHT22;32528;45.712;9.192;2023-04-03T06:55:38;10.60;93.40
28460;DHT22;32528;45.712;9.192;2023-04-03T06:57:39;10.80;93.40
28460;DHT22;32528;45.712;9.192;2023-04-03T06:59:40;11.00;92.70
28460;DHT22;32528;45.712;9.192;2023-04-03T07:01:41;11.10;92.30
28460;DHT22;32528;45.712;9.192;2023-04-03T07:03:42;11.40;92.00
28460;DHT22;32528;45.712;9.192;2023-04-03T07:05:43;11.70;90.80
28460;DHT22;32528;45.712;9.192;2023-04-03T07:07:45;11.90;90.70
28460;DHT22;32528;45.712;9.192;2023-04-03T07:09:46;12.20;90.40
28460;DHT22;32528;45.712;9.192;2023-04-03T07:11:48;12.50;89.00
28460;DHT22;32528;45.712;9.192;2023-04-03T07:13:50;12.70;89.30
28460;DHT22;32528;45.712;9.192;2023-04-03T07:15:51;12.90;87.00
28460;DHT22;32528;45.712;9.192;2023-04-03T07:17:51;13.10;87.20
28460;DHT22;32528;45.712;9.192;2023-04-03T07:19:52;13.20;84.50
28460;DHT22;32528;45.712;9.192;2023-04-03T07:21:53;13.30;84.30
28460;DHT22;32528;45.712;9.192;2023-04-03T07:23:55;13.40;83.90
28460;DHT22;32528;45.712;9.192;2023-04-03T07:25:55;13.40;83.70
28460;DHT22;32528;45.712;9.192;2023-04-03T07:27:57;13.50;83.20
28460;DHT22;32528;45.712;9.192;2023-04-03T07:29:58;13.50;82.40
28460;DHT22;32528;45.712;9.192;2023-04-03T07:31:58;13.60;82.70
28460;DHT22;32528;45.712;9.192;2023-04-03T07:33:59;13.60;83.20
28460;DHT22;32528;45.712;9.192;2023-04-03T07:36:00;13.70;83.00
28460;DHT22;32528;45.712;9.192;2023-04-03T07:38:01;13.70;82.30
28460;DHT22;32528;45.712;9.192;2023-04-03T07:40:04;13.80;83.10
28460;DHT22;32528;45.712;9.192;2023-04-03T07:42:06;13.80;82.20
28460;DHT22;32528;45.712;9.192;2023-04-03T07:44:06;13.90;82.50
28460;DHT22;32528;45.712;9.192;2023-04-03T07:46:10;14.00;82.10
28460;DHT22;32528;45.712;9.192;2023-04-03T07:48:12;14.10;82.30
28460;DHT22;32528;45.712;9.192;2023-04-03T07:50:14;14.10;81.90
28460;DHT22;32528;45.712;9.192;2023-04-03T07:52:15;14.20;81.30
28460;DHT22;32528;45.712;9.192;2023-04-03T07:54:16;14.20;81.30
28460;DHT22;32528;45.712;9.192;2023-04-03T07:56:16;14.30;81.50
28460;DHT22;32528;45.712;9.192;2023-04-03T07:58:18;14.30;80.80
28460;DHT22;32528;45.712;9.192;2023-04-03T08:00:19;14.30;80.60
28460;DHT22;32528;45.712;9.192;2023-04-03T08:02:20;14.40;81.00
28460;DHT22;32528;45.712;9.192;2023-04-03T08:04:21;14.40;80.60
28460;DHT22;32528;45.712;9.192;2023-04-03T08:06:22;14.50;80.40
28460;DHT22;32528;45.712;9.192;2023-04-03T08:08:23;14.50;80.80
28460;DHT22;32528;45.712;9.192;2023-04-03T08:10:24;14.60;80.80
28460;DHT22;32528;45.712;9.192;2023-04-03T08:12:25;14.60;80.20
28460;DHT22;32528;45.712;9.192;2023-04-03T08:14:31;14.60;80.30
28460;DHT22;32528;45.712;9.192;2023-04-03T08:16:32;14.70;79.60
28460;DHT22;32528;45.712;9.192;2023-04-03T08:18:32;14.70;79.50
28460;DHT22;32528;45.712;9.192;2023-04-03T08:20:33;14.80;79.60
28460;DHT22;32528;45.712;9.192;2023-04-03T08:22:34;14.80;79.50
28460;DHT22;32528;45.712;9.192;2023-04-03T08:24:35;14.80;79.50
28460;DHT22;32528;45.712;9.192;2023-04-03T08:26:36;14.90;79.40
28460;DHT22;32528;45.712;9.192;2023-04-03T08:28:36;14.90;79.10
28460;DHT22;32528;45.712;9.192;2023-04-03T08:30:41;15.00;79.40
28460;DHT22;32528;45.712;9.192;2023-04-03T08:32:42;15.00;79.20
28460;DHT22;32528;45.712;9.192;2023-04-03T08:34:44;15.00;78.40
28460;DHT22;32528;45.712;9.192;2023-04-03T08:36:45;15.00;78.20
28460;DHT22;32528;45.712;9.192;2023-04-03T08:38:46;15.10;78.60
28460;DHT22;32528;45.712;9.192;2023-04-03T08:40:46;15.10;78.20
28460;DHT22;32528;45.712;9.192;2023-04-03T08:45:16;15.10;78.10
28460;DHT22;32528;45.712;9.192;2023-04-03T08:50:20;15.10;77.80
28460;DHT22;32528;45.712;9.192;2023-04-03T08:54:33;15.10;77.80
28460;DHT22;32528;45.712;9.192;2023-04-03T08:56:36;15.30;77.80
28460;DHT22;32528;45.712;9.192;2023-04-03T08:58:50;15.30;77.70
28460;DHT22;32528;45.712;9.192;2023-04-03T09:01:02;15.30;78.00
28460;DHT22;32528;45.712;9.192;2023-04-03T09:03:12;15.40;77.50
28460;DHT22;32528;45.712;9.192;2023-04-03T09:07:47;15.30;77.70
28460;DHT22;32528;45.712;9.192;2023-04-03T09:09:48;15.30;77.90
28460;DHT22;32528;45.712;9.192;2023-04-03T09:16:59;15.40;78.00
28460;DHT22;32528;45.712;9.192;2023-04-03T09:21:38;15.40;79.10
28460;DHT22;32528;45.712;9.192;2023-04-03T09:23:51;15.50;78.00
28460;DHT22;32528;45.712;9.192;2023-04-03T09:26:02;15.50;77.70
28460;DHT22;32528;45.712;9.192;2023-04-03T09:28:05;15.70;78.00
28460;DHT22;32528;45.712;9.192;2023-04-03T09:30:20;15.60;77.20
28460;DHT22;32528;45.712;9.192;2023-04-03T09:32:27;15.70;77.70
28460;DHT22;32528;45.712;9.192;2023-04-03T09:34:35;15.70;76.30
28460;DHT22;32528;45.712;9.192;2023-04-03T09:36:46;15.70;76.20
28460;DHT22;32528;45.712;9.192;2023-04-03T09:39:07;15.70;77.80
28460;DHT22;32528;45.712;9.192;2023-04-03T09:41:17;15.70;76.70
28460;DHT22;32528;45.712;9.192;2023-04-03T09:43:25;15.70;77.30
28460;DHT22;32528;45.712;9.192;2023-04-03T09:45:34;15.80;78.10
28460;DHT22;32528;45.712;9.192;2023-04-03T09:47:36;15.70;77.50
28460;DHT22;32528;45.712;9.192;2023-04-03T09:49:38;15.80;77.70
28460;DHT22;32528;45.712;9.192;2023-04-03T09:51:40;15.80;77.90
28460;DHT22;32528;45.712;9.192;2023-04-03T09:53:44;15.80;78.40
28460;DHT22;32528;45.712;9.192;2023-04-03T09:55:45;15.90;77.50
28460;DHT22;32528;45.712;9.192;2023-04-03T09:57:46;15.90;77.90
28460;DHT22;32528;45.712;9.192;2023-04-03T10:00:00;15.90;77.20
28460;DHT22;32528;45.712;9.192;2023-04-03T10:04:37;15.90;77.30
28460;DHT22;32528;45.712;9.192;2023-04-03T10:06:42;16.00;78.20
28460;DHT22;32528;45.712;9.192;2023-04-03T10:11:21;16.20;77.90
28460;DHT22;32528;45.712;9.192;2023-04-03T10:13:24;16.20;78.50
28460;DHT22;32528;45.712;9.192;2023-04-03T10:15:27;16.30;78.90
28460;DHT22;32528;45.712;9.192;2023-04-03T10:21:59;16.50;76.10
28460;DHT22;32528;45.712;9.192;2023-04-03T10:26:42;16.50;75.50
28460;DHT22;32528;45.712;9.192;2023-04-03T10:36:10;16.70;76.00
28460;DHT22;32528;45.712;9.192;2023-04-03T10:47:27;16.80;77.10
28460;DHT22;32528;45.712;9.192;2023-04-03T10:52:21;16.90;75.70
28460;DHT22;32528;45.712;9.192;2023-04-03T10:55:24;16.80;75.10
28460;DHT22;32528;45.712;9.192;2023-04-03T10:57:13;16.80;75.80
28460;DHT22;32528;45.712;9.192;2023-04-03T10:59:41;16.90;75.40
28460;DHT22;32528;45.712;9.192;2023-04-03T11:01:53;16.90;76.70
28460;DHT22;32528;45.712;9.192;2023-04-03T11:03:58;17.00;76.10
28460;DHT22;32528;45.712;9.192;2023-04-03T11:06:01;17.00;76.10
28460;DHT22;32528;45.712;9.192;2023-04-03T11:08:13;17.00;76.20
28460;DHT22;32528;45.712;9.192;2023-04-03T11:12:44;17.10;75.60
28460;DHT22;32528;45.712;9.192;2023-04-03T11:14:49;17.10;75.20
28460;DHT22;32528;45.712;9.192;2023-04-03T11:21:36;17.20;76.40
28460;DHT22;32528;45.712;9.192;2023-04-03T11:23:40;17.30;75.90
28460;DHT22;32528;45.712;9.192;2023-04-03T11:25:42;17.40;76.10
28460;DHT22;32528;45.712;9.192;2023-04-03T11:27:47;17.30;74.90
28460;DHT22;32528;45.712;9.192;2023-04-03T11:29:50;17.30;75.90
28460;DHT22;32528;45.712;9.192;2023-04-03T11:36:23;17.60;74.70
28460;DHT22;32528;45.712;9.192;2023-04-03T11:38:28;17.40;74.40
28460;DHT22;32528;45.712;9.192;2023-04-03T11:40:35;17.40;73.90
28460;DHT22;32528;45.712;9.192;2023-04-03T11:42:40;17.40;75.40
28460;DHT22;32528;45.712;9.192;2023-04-03T11:44:41;17.50;75.10
28460;DHT22;32528;45.712;9.192;2023-04-03T11:46:54;17.60;74.90
28460;DHT22;32528;45.712;9.192;2023-04-03T11:48:55;17.60;74.20
28460;DHT22;32528;45.712;9.192;2023-04-03T11:50:58;17.80;74.80
28460;DHT22;32528;45.712;9.192;2023-04-03T11:57:44;17.90;74.80
28460;DHT22;32528;45.712;9.192;2023-04-03T11:59:45;17.90;74.30
28460;DHT22;32528;45.712;9.192;2023-04-03T12:01:54;17.90;73.80
28460;DHT22;32528;45.712;9.192;2023-04-03T12:04:07;17.90;73.80
28460;DHT22;32528;45.712;9.192;2023-04-03T12:10:28;17.80;74.00
28460;DHT22;32528;45.712;9.192;2023-04-03T12:12:38;17.90;74.60
28460;DHT22;32528;45.712;9.192;2023-04-03T12:14:39;17.90;73.10
28460;DHT22;32528;45.712;9.192;2023-04-03T12:20:58;18.10;73.00
28460;DHT22;32528;45.712;9.192;2023-04-03T12:23:24;18.00;72.40
28460;DHT22;32528;45.712;9.192;2023-04-03T12:28:16;17.90;71.40
28460;DHT22;32528;45.712;9.192;2023-04-03T12:30:25;18.00;71.70
28460;DHT22;32528;45.712;9.192;2023-04-03T12:39:50;18.30;72.50
28460;DHT22;32528;45.712;9.192;2023-04-03T12:42:22;18.40;72.00
28460;DHT22;32528;45.712;9.192;2023-04-03T12:44:56;18.40;71.80
28460;DHT22;32528;45.712;9.192;2023-04-03T12:47:01;18.40;70.70
28460;DHT22;32528;45.712;9.192;2023-04-03T12:51:44;18.50;71.90
28460;DHT22;32528;45.712;9.192;2023-04-03T12:53:46;18.60;70.60
28460;DHT22;32528;45.712;9.192;2023-04-03T12:55:47;18.70;70.80
28460;DHT22;32528;45.712;9.192;2023-04-03T12:57:48;18.60;70.10
28460;DHT22;32528;45.712;9.192;2023-04-03T12:59:49;18.60;69.70
28460;DHT22;32528;45.712;9.192;2023-04-03T13:01:58;18.70;70.80
28460;DHT22;32528;45.712;9.192;2023-04-03T13:03:59;18.70;70.00
28460;DHT22;32528;45.712;9.192;2023-04-03T13:06:02;18.80;71.10
28460;DHT22;32528;45.712;9.192;2023-04-03T13:08:09;18.80;70.20
28460;DHT22;32528;45.712;9.192;2023-04-03T13:10:17;18.90;69.30
28460;DHT22;32528;45.712;9.192;2023-04-03T13:12:18;19.00;69.90
28460;DHT22;32528;45.712;9.192;2023-04-03T13:14:21;19.10;69.20
28460;DHT22;32528;45.712;9.192;2023-04-03T13:16:22;19.10;68.20
28460;DHT22;32528;45.712;9.192;2023-04-03T13:20:30;18.90;68.90
28460;DHT22;32528;45.712;9.192;2023-04-03T13:22:37;19.00;69.00
28460;DHT22;32528;45.712;9.192;2023-04-03T13:24:45;19.10;67.90
28460;DHT22;32528;45.712;9.192;2023-04-03T13:26:47;18.90;67.50
28460;DHT22;32528;45.712;9.192;2023-04-03T13:28:48;19.00;68.00
28460;DHT22;32528;45.712;9.192;2023-04-03T13:30:58;19.10;68.00
28460;DHT22;32528;45.712;9.192;2023-04-03T13:33:02;19.20;68.10
28460;DHT22;32528;45.712;9.192;2023-04-03T13:37:34;19.30;67.00
28460;DHT22;32528;45.712;9.192;2023-04-03T13:39:38;19.50;67.80
28460;DHT22;32528;45.712;9.192;2023-04-03T13:41:41;19.40;66.70
28460;DHT22;32528;45.712;9.192;2023-04-03T13:43:43;19.20;66.90
28460;DHT22;32528;45.712;9.192;2023-04-03T13:46:03;19.20;66.90
28460;DHT22;32528;45.712;9.192;2023-04-03T13:48:19;19.10;66.20
28460;DHT22;32528;45.712;9.192;2023-04-03T13:50:21;19.00;66.60
28460;DHT22;32528;45.712;9.192;2023-04-03T13:52:33;19.10;67.00
28460;DHT22;32528;45.712;9.192;2023-04-03T13:54:38;19.20;67.40
28460;DHT22;32528;45.712;9.192;2023-04-03T13:56:40;19.20;66.70
28460;DHT22;32528;45.712;9.192;2023-04-03T13:58:57;19.30;66.50
28460;DHT22;32528;45.712;9.192;2023-04-03T14:03:29;19.40;65.50
28460;DHT22;32528;45.712;9.192;2023-04-03T14:05:30;19.30;65.90
28460;DHT22;32528;45.712;9.192;2023-04-03T14:07:31;19.30;65.70
28460;DHT22;32528;45.712;9.192;2023-04-03T14:09:32;19.50;66.10
28460;DHT22;32528;45.712;9.192;2023-04-03T14:11:34;19.60;65.40
28460;DHT22;32528;45.712;9.192;2023-04-03T14:13:35;19.60;64.60
28460;DHT22;32528;45.712;9.192;2023-04-03T14:15:35;19.60;65.20
28460;DHT22;32528;45.712;9.192;2023-04-03T14:17:37;19.60;65.00
28460;DHT22;32528;45.712;9.192;2023-04-03T14:19:37;19.50;64.80
28460;DHT22;32528;45.712;9.192;2023-04-03T14:21:39;19.50;64.50
28460;DHT22;32528;45.712;9.192;2023-04-03T14:23:40;19.50;64.30
28460;DHT22;32528;45.712;9.192;2023-04-03T14:25:41;19.50;64.00
28460;DHT22;32528;45.712;9.192;2023-04-03T14:27:47;19.60;63.30
28460;DHT22;32528;45.712;9.192;2023-04-03T14:29:50;19.70;63.60
28460;DHT22;32528;45.712;9.192;2023-04-03T14:31:52;19.70;63.80
28460;DHT22;32528;45.712;9.192;2023-04-03T14:33:52;19.80;63.60
28460;DHT22;32528;45.712;9.192;2023-04-03T14:35:53;19.90;63.60
28460;DHT22;32528;45.712;9.192;2023-04-03T14:37:55;20.00;62.60
28460;DHT22;32528;45.712;9.192;2023-04-03T14:39:57;20.10;63.60